Marc Duran

Chefscout - Almería
24 Okt 2027
Sonntag
Verarbeitung

Persönlichkeit

Anpassungsfähigkeit (19) Ehrgeiz (20) Kontroverse (14) Loyalität (13) Druck (8) Professionalität (5) Fairness (16) Temperament (5)

Profil

Trainerstil Demokratisch
Lizenz Nationale A
Entschlossenheit 6
Menschenführung 13
Motivation 5
Disziplin 7
Arbeitszufriedenheit
100%
Ermüdung
0%
Rolle Chefscout
Gehalt 67.1K p/W
Vertrag 14.03.2030

Leistung

Verhalten Gut
Trainingseffektivität
45%
Spielerentwicklung
50%
Verletzungsprävention
65%
Taktische Umsetzung
55%

Letzte Ereignisse

Spieler begutachtet 49T her
Nahm an einer Scouting-Besprechung teil 49T her
Nahm an einer Scouting-Besprechung teil 49T her
Empfahl ein Transferziel 49T her
Nahm an einer Scouting-Besprechung teil 56T her
Nahm an einer Scouting-Besprechung teil 56T her
Empfahl ein Transferziel 56T her
Nahm an einer Scouting-Besprechung teil 56T her

Aktuell beobachtet

87
Spieler Verein Status Fähigkeit Vertrauen Beobachtet Zuletzt beobachtet Letzte Stimme
Celías Ingenthron Racing Club Aktiv 110 / 126 40% 1 31.08.2027 -
Felipe Faúndez O'Higgins Aktiv 117 / 113 40% 1 30.08.2027 -
Zahir Ibarra Unión de Santa Fe Aktiv 95 / 113 40% 1 30.08.2027 -
Nazareno Roselli Defensa y Justicia Aktiv 107 / 125 40% 2 19.08.2027 -
Mattia Puzone Siracusa Aktiv 108 / 103 40% 1 19.08.2027 -
Godwin Oham Warri Wolves Aktiv 83 / 90 40% 2 09.08.2027 -
Juan Oviedo Gimnasia y Tiro Aktiv 105 / 88 40% 1 09.08.2027 -
Mbekezeli Mbokazi Chicago Fire Aktiv 114 / 122 40% 3 08.08.2027 -
Inti Borghetto Patronato Aktiv 92 / 92 40% 1 08.08.2027 -
Halam Loboa Osasuna Aktiv 119 / 124 40% 2 06.08.2027 -
Musa Danjuma Hatayspor Aktiv 79 / 95 40% 3 06.08.2027 -
Santino Gatti Belgrano Aktiv 78 / 100 40% 2 01.08.2027 -
Cristian Morales O'Higgins Aktiv 71 / 85 40% 1 01.08.2027 -
Enzo Cardozo Huracán Aktiv 124 / 112 40% 1 30.07.2027 -
Juan Giménez Athletic Bilbao Aktiv 129 / 128 40% 1 30.07.2027 -
Thiago Helguera Braga Aktiv 111 / 133 40% 4 29.07.2027 -
Tiago Freitas Benfica Aktiv 102 / 118 40% 2 29.07.2027 -
Augusto Bando Ascoli Aktiv 112 / 112 40% 1 28.07.2027 -
Lautaro Dufur Rentistas Aktiv 116 / 104 40% 1 27.07.2027 -
Mandla Mothiba Free State Stars Aktiv 108 / 95 40% 3 25.07.2027 -
Sascha Britschgi Fiorentina Aktiv 123 / 122 40% 1 24.07.2027 -
Andrija Bulatović RC Lens Aktiv 126 / 127 40% 2 23.07.2027 -
Vasco Santos Oliveirense Aktiv 80 / 104 40% 3 22.07.2027 -
Joseph Jones Kryvbas Aktiv 115 / 101 40% 1 22.07.2027 -
Elie N'Gatta Sochaux Abgelehnt 110 / 99 40% 2 20.07.2027 Mehr Infos nötig
Kaick FC Dallas Aktiv 123 / 113 40% 1 20.07.2027 -
Hlompho Billiat Free State Stars Aktiv 102 / 107 40% 2 19.07.2027 -
Simone Kosijer Triestina Aktiv 112 / 103 40% 2 18.07.2027 -
Mohamed Bolivar Barranquilla Aktiv 109 / 86 40% 1 15.07.2027 -
Marius Courcoul Olympique de Marseille Aktiv 111 / 130 40% 3 14.07.2027 -
Lucas Camilo Puebla Aktiv 111 / 105 40% 1 13.07.2027 -
Lucas Velásquez Huachipato Aktiv 96 / 98 40% 1 11.07.2027 -
Vanja Dragojević Partizan Aktiv 121 / 115 40% 1 11.07.2027 -
Marco Oroná Antofagasta Aktiv 102 / 112 40% 2 09.07.2027 -
Arjan Malić Sturm Graz Aktiv 132 / 125 40% 2 08.07.2027 -
Mikhail Ryadno Baltika Aktiv 96 / 99 40% 1 08.07.2027 -
Hosea Michael Remo Stars Aktiv 81 / 91 40% 1 07.07.2027 -
Martim Cunha Porto Aktiv 102 / 104 40% 2 05.07.2027 -
Ibrahim Coulibaly Clermont Foot Aktiv 109 / 114 40% 1 05.07.2027 -
Ezra Mayers West Ham United Aktiv 115 / 129 40% 2 04.07.2027 -
Teo Rodríguez Pagano San Lorenzo Aktiv 96 / 123 40% 1 30.06.2027 -
Alessio Insignito Spezia Aktiv 109 / 101 40% 1 30.06.2027 -
Kazunari Kita Real Sociedad Aktiv 110 / 110 40% 1 29.06.2027 -
Facundo Balatti Penarol Aktiv 121 / 114 40% 3 28.06.2027 -
Joe Knight Stevenage Aktiv 98 / 109 40% 1 28.06.2027 -
Jorge Salinas Racing Santander Aktiv 135 / 136 40% 2 27.06.2027 -
Miguel Figueiredo Benfica Aktiv 109 / 118 40% 2 24.06.2027 -
Jose Rodriguez La Equidad Aktiv 84 / 99 40% 1 23.06.2027 -
Mattia Mannini Juve Stabia Aktiv 126 / 121 40% 1 22.06.2027 -
Saba Kharebashvili Basaksehir Aktiv 120 / 129 40% 1 22.06.2027 -
Louis Leroux FC Nantes Aktiv 130 / 129 40% 1 16.06.2027 -
Mats Egbring Heerenveen Aktiv 104 / 113 40% 1 16.06.2027 -
Rafael Vargas Cortulua Aktiv 106 / 108 40% 1 15.06.2027 -
Wilmar Borja La Equidad Aktiv 118 / 117 40% 1 14.06.2027 -
Milan Roganović Partizan Aktiv 120 / 118 40% 1 10.06.2027 -
Manuel Lopez Valledupar Aktiv 109 / 105 40% 1 07.06.2027 -
Juan Bezerra Porto Aktiv 118 / 122 69% 1 01.06.2027 Befürworten
Pietro Reggiori Pro Patria Aktiv 102 / 93 40% 1 01.06.2027 -
Daniel Arteaga Pumas UNAM Aktiv 104 / 117 40% 3 31.01.2027 -
Gilberto Mora AC Milan Aktiv 124 / 131 40% 2 31.01.2027 -
Lander Astiazarán Real Sociedad Aktiv 106 / 116 67% 1 30.01.2027 Beobachten
Alexis Vossah Toulouse FC Aktiv 121 / 121 40% 1 27.01.2027 Mehr Infos nötig
Sindre Walle Egeli Ipswich Town Aktiv 116 / 130 40% 1 22.01.2027 -
Diego Gaitán Maipú Aktiv 101 / 111 40% 1 18.01.2027 -
Pedro Zenit Aktiv 143 / 133 40% 2 17.01.2027 -
Ignacio Perruzzi San Lorenzo Aktiv 111 / 129 40% 1 17.01.2027 -
Keny Arroyo Cruzeiro Aktiv 138 / 125 40% 1 13.01.2027 -
Sam Amo-Ameyaw RC Strasbourg Aktiv 127 / 124 40% 1 13.01.2027 -
Lovro Zvonarek Estrela da Amadora Aktiv 114 / 132 40% 1 12.01.2027 -
Edison Gruezo Queretaro Aktiv 93 / 119 40% 1 12.01.2027 -
Mfundo Vilakazi Kaizer Chiefs Aktiv 94 / 123 40% 2 11.01.2027 -
Tibe De Vlieger KAA Gent Aktiv 108 / 106 40% 1 08.01.2027 -
Joaquin Seys Club Brugge Aktiv 120 / 126 40% 1 08.01.2027 -
Pierre-Emerick Aubameyang Deportivo La Coruña Aktiv 131 / 140 48% 1 06.01.2027 -
Patrick Preciado Deportivo Pasto Aktiv 97 / 105 40% 1 06.01.2027 -
Lucas Ferreira Shakhtar Aktiv 117 / 126 40% 1 04.01.2027 -
Kyriani Sabbe Club Brugge Aktiv 114 / 123 40% 1 01.01.2027 -
Bruno Centeno Deportivo Maldonado Aktiv 89 / 87 40% 1 30.08.2026 -
Tadeo Polli San Martín Aktiv 83 / 97 40% 1 30.08.2026 -
Juan Velázquez Belgrano Aktiv 112 / 130 40% 1 28.08.2026 -
Isaí Valladares Zamora Aktiv 109 / 96 40% 1 20.08.2026 -
Alejo Gelsomino Gimnasia La Plata Aktiv 119 / 110 40% 1 20.08.2026 -
Tobías Correa Uruguay Montevideo Aktiv 77 / 106 40% 1 07.08.2026 -
Matías Gómez Talleres Aktiv 97 / 130 40% 1 07.08.2026 -
Agustín Obregón River Plate Aktiv 126 / 118 40% 1 05.08.2026 -
Juan Fernándes Pinto Almagro Aktiv 108 / 102 40% 1 04.08.2026 -
Santiago Colidio Colón Aktiv 86 / 94 40% 1 03.08.2026 -